ETD532 VABB-OMDB
Flight info
| Callsign | ETD532 |
|---|---|
| Flight time | N/A |
| Altitude | 35000 |
| Route | RAXET2A SAKUN V2 SUGID N571 VUSET A454 PASOV B540 MIVEK P574 IMPED |
| Aircraft | B789/H-SDE1E2E3FGHIJ2J3J4J5M1RWXY/LB1D1 |
Departure
| Time | 2026-05-04 01:09 |
|---|---|
| Airport | Chhatrapati Shivaji Maharaj International Airport (VABB) |
Arrival
| Time | N/A |
|---|---|
| Airport | Dubai International Airport (OMDB) |
| Time | Latitude | Longitude | Altitude | Speed | Heading |
|---|---|---|---|---|---|
| 2026-05-04 00:36 | 19.09313 | 72.87073 | 38 ft | 0 kts | 32° |
| 2026-05-04 00:56 | 19.09310 | 72.87071 | 39 ft | 2 kts | 32° |
| 2026-05-04 00:56 | 19.09296 | 72.87061 | 38 ft | 2 kts | 35° |
| 2026-05-04 00:56 | 19.09282 | 72.87051 | 38 ft | 2 kts | 38° |
| 2026-05-04 00:56 | 19.09270 | 72.87040 | 36 ft | 2 kts | 43° |
| 2026-05-04 00:57 | 19.09259 | 72.87027 | 34 ft | 2 kts | 54° |
| 2026-05-04 00:57 | 19.09251 | 72.87011 | 38 ft | 2 kts | 82° |
| 2026-05-04 00:57 | 19.09255 | 72.86995 | 38 ft | 2 kts | 128° |
| 2026-05-04 00:57 | 19.09257 | 72.86993 | 38 ft | 0 kts | 133° |
| 2026-05-04 01:02 | 19.09253 | 72.86997 | 39 ft | 2 kts | 131° |
| 2026-05-04 01:02 | 19.09244 | 72.87012 | 39 ft | 3 kts | 119° |
| 2026-05-04 01:02 | 19.09240 | 72.87029 | 39 ft | 4 kts | 102° |
| 2026-05-04 01:03 | 19.09236 | 72.87075 | 39 ft | 8 kts | 91° |
| 2026-05-04 01:03 | 19.09235 | 72.87144 | 39 ft | 0 kts | 89° |
| 2026-05-04 01:03 | 19.09235 | 72.87161 | 39 ft | 5 kts | 89° |
| 2026-05-04 01:03 | 19.09236 | 72.87182 | 39 ft | 0 kts | 89° |
| 2026-05-04 01:04 | 19.09236 | 72.87193 | 39 ft | 4 kts | 89° |
| 2026-05-04 01:04 | 19.09216 | 72.87247 | 39 ft | 11 kts | 140° |
| 2026-05-04 01:04 | 19.09195 | 72.87257 | 39 ft | 0 kts | 160° |
| 2026-05-04 01:05 | 19.09167 | 72.87261 | 39 ft | 9 kts | 175° |
| 2026-05-04 01:05 | 19.09076 | 72.87275 | 39 ft | 15 kts | 150° |
| 2026-05-04 01:05 | 19.09053 | 72.87376 | 39 ft | 18 kts | 89° |
| 2026-05-04 01:06 | 19.09054 | 72.87448 | 39 ft | 23 kts | 89° |
| 2026-05-04 01:06 | 19.09054 | 72.87481 | 39 ft | 25 kts | 89° |
| 2026-05-04 01:06 | 19.09056 | 72.87685 | 38 ft | 21 kts | 89° |
| 2026-05-04 01:06 | 19.09028 | 72.87808 | 38 ft | 9 kts | 157° |
| 2026-05-04 01:07 | 19.09001 | 72.87808 | 38 ft | 0 kts | 182° |
| 2026-05-04 01:07 | 19.08972 | 72.87807 | 38 ft | 8 kts | 182° |
| 2026-05-04 01:07 | 19.08908 | 72.87785 | 38 ft | 12 kts | 220° |
| 2026-05-04 01:07 | 19.08884 | 72.87707 | 38 ft | 0 kts | 269° |
| 2026-05-04 01:08 | 19.08884 | 72.87700 | 38 ft | 9 kts | 269° |
| 2026-05-04 01:08 | 19.08882 | 72.87431 | 39 ft | 67 kts | 270° |
| 2026-05-04 01:08 | 19.08872 | 72.86731 | 40 ft | 121 kts | 269° |
| 2026-05-04 01:09 | 19.08857 | 72.85673 | 36 ft | 165 kts | 269° |
| 2026-05-04 01:09 | 19.08849 | 72.84373 | 378 ft | 180 kts | 269° |
| 2026-05-04 01:09 | 19.08855 | 72.82972 | 738 ft | 197 kts | 267° |
| 2026-05-04 01:09 | 19.08800 | 72.81532 | 1485 ft | 197 kts | 264° |
| 2026-05-04 01:10 | 19.08699 | 72.80127 | 2538 ft | 187 kts | 262° |
| 2026-05-04 01:10 | 19.08543 | 72.78779 | 3598 ft | 180 kts | 261° |
| 2026-05-04 01:10 | 19.08473 | 72.77401 | 4211 ft | 206 kts | 281° |
| 2026-05-04 01:10 | 19.09357 | 72.76105 | 4673 ft | 239 kts | 320° |
| 2026-05-04 01:11 | 19.10803 | 72.75035 | 5196 ft | 263 kts | 320° |
| 2026-05-04 01:11 | 19.12163 | 72.73720 | 6189 ft | 264 kts | 310° |
| 2026-05-04 01:11 | 19.13304 | 72.72235 | 7352 ft | 265 kts | 304° |
| 2026-05-04 01:11 | 19.14266 | 72.70514 | 8157 ft | 271 kts | 293° |
| 2026-05-04 01:12 | 19.14887 | 72.68648 | 9279 ft | 275 kts | 287° |
| 2026-05-04 01:12 | 19.15416 | 72.66661 | 10197 ft | 282 kts | 287° |
| 2026-05-04 01:12 | 19.16022 | 72.64633 | 10865 ft | 300 kts | 289° |
| 2026-05-04 01:12 | 19.16735 | 72.62439 | 11010 ft | 333 kts | 289° |
| 2026-05-04 01:13 | 19.17503 | 72.60037 | 11017 ft | 344 kts | 289° |
| 2026-05-04 01:13 | 19.18262 | 72.57580 | 11619 ft | 350 kts | 288° |
| 2026-05-04 01:13 | 19.19020 | 72.55135 | 12597 ft | 354 kts | 288° |
| 2026-05-04 01:13 | 19.19800 | 72.52645 | 13470 ft | 360 kts | 288° |
| 2026-05-04 01:14 | 19.20595 | 72.50111 | 14304 ft | 365 kts | 288° |
| 2026-05-04 01:14 | 19.21393 | 72.47552 | 15129 ft | 369 kts | 288° |
| 2026-05-04 01:14 | 19.22201 | 72.44955 | 15963 ft | 374 kts | 289° |
| 2026-05-04 01:14 | 19.23021 | 72.42327 | 16774 ft | 378 kts | 289° |
| 2026-05-04 01:15 | 19.23852 | 72.39662 | 17528 ft | 383 kts | 289° |
| 2026-05-04 01:15 | 19.24693 | 72.36963 | 18278 ft | 388 kts | 289° |
| 2026-05-04 01:15 | 19.25538 | 72.34249 | 18987 ft | 391 kts | 289° |
| 2026-05-04 01:15 | 19.26392 | 72.31501 | 19705 ft | 394 kts | 288° |
| 2026-05-04 01:16 | 19.27251 | 72.28740 | 20396 ft | 396 kts | 288° |
| 2026-05-04 01:16 | 19.28115 | 72.25958 | 21101 ft | 399 kts | 288° |
| 2026-05-04 01:16 | 19.28981 | 72.23167 | 21774 ft | 401 kts | 288° |
| 2026-05-04 01:16 | 19.29855 | 72.20353 | 22425 ft | 404 kts | 288° |
| 2026-05-04 01:17 | 19.30736 | 72.17512 | 23054 ft | 407 kts | 288° |
| 2026-05-04 01:17 | 19.31620 | 72.14659 | 23611 ft | 410 kts | 288° |
| 2026-05-04 01:17 | 19.32510 | 72.11788 | 24090 ft | 412 kts | 288° |
| 2026-05-04 01:17 | 19.33408 | 72.08886 | 24576 ft | 415 kts | 288° |
| 2026-05-04 01:18 | 19.34307 | 72.05980 | 25027 ft | 418 kts | 288° |
| 2026-05-04 01:18 | 19.35218 | 72.03034 | 25480 ft | 421 kts | 288° |
| 2026-05-04 01:18 | 19.36131 | 72.00080 | 25933 ft | 424 kts | 288° |
| 2026-05-04 01:18 | 19.37049 | 71.97108 | 26368 ft | 426 kts | 288° |
| 2026-05-04 01:19 | 19.37972 | 71.94118 | 26805 ft | 429 kts | 288° |
| 2026-05-04 01:19 | 19.38902 | 71.91102 | 27209 ft | 432 kts | 288° |
| 2026-05-04 01:19 | 19.39838 | 71.88065 | 27620 ft | 435 kts | 288° |
| 2026-05-04 01:19 | 19.40777 | 71.85016 | 28008 ft | 438 kts | 288° |
| 2026-05-04 01:20 | 19.41724 | 71.81938 | 28392 ft | 440 kts | 288° |
| 2026-05-04 01:20 | 19.42676 | 71.78844 | 28775 ft | 443 kts | 288° |
| 2026-05-04 01:20 | 19.43634 | 71.75730 | 29131 ft | 446 kts | 288° |
| 2026-05-04 01:20 | 19.44598 | 71.72590 | 29477 ft | 449 kts | 288° |
| 2026-05-04 01:21 | 19.45563 | 71.69446 | 29809 ft | 451 kts | 288° |
| 2026-05-04 01:21 | 19.46537 | 71.66271 | 30099 ft | 454 kts | 288° |
| 2026-05-04 01:21 | 19.47514 | 71.63084 | 30370 ft | 456 kts | 288° |
| 2026-05-04 01:21 | 19.48495 | 71.59881 | 30660 ft | 458 kts | 288° |
| 2026-05-04 01:22 | 19.49482 | 71.56659 | 30939 ft | 460 kts | 288° |
| 2026-05-04 01:22 | 19.50467 | 71.53437 | 31206 ft | 462 kts | 288° |
| 2026-05-04 01:22 | 19.51463 | 71.50182 | 31472 ft | 464 kts | 288° |
| 2026-05-04 01:22 | 19.52460 | 71.46916 | 31725 ft | 466 kts | 288° |
| 2026-05-04 01:23 | 19.53455 | 71.43657 | 31969 ft | 468 kts | 288° |
| 2026-05-04 01:23 | 19.54458 | 71.40370 | 32208 ft | 469 kts | 288° |
| 2026-05-04 01:23 | 19.55463 | 71.37073 | 32524 ft | 469 kts | 289° |
| 2026-05-04 01:23 | 19.56468 | 71.33774 | 32882 ft | 468 kts | 289° |
| 2026-05-04 01:24 | 19.57463 | 71.30504 | 33236 ft | 467 kts | 289° |
| 2026-05-04 01:24 | 19.58463 | 71.27216 | 33594 ft | 466 kts | 289° |
| 2026-05-04 01:24 | 19.59459 | 71.23940 | 33930 ft | 465 kts | 289° |
| 2026-05-04 01:24 | 19.60434 | 71.20729 | 34225 ft | 464 kts | 288° |
| 2026-05-04 01:25 | 19.61427 | 71.17474 | 34540 ft | 463 kts | 289° |
| 2026-05-04 01:25 | 19.62455 | 71.14216 | 34740 ft | 465 kts | 289° |
| 2026-05-04 01:25 | 19.63492 | 71.10954 | 34788 ft | 470 kts | 289° |
| 2026-05-04 01:26 | 19.65535 | 71.04379 | 34786 ft | 467 kts | 289° |
| 2026-05-04 01:26 | 19.67576 | 70.97856 | 34789 ft | 466 kts | 289° |
| 2026-05-04 01:27 | 19.69605 | 70.91339 | 34784 ft | 465 kts | 289° |
| 2026-05-04 01:27 | 19.71635 | 70.84817 | 34786 ft | 465 kts | 289° |
| 2026-05-04 01:28 | 19.73661 | 70.78298 | 34788 ft | 465 kts | 289° |
| 2026-05-04 01:28 | 19.75684 | 70.71778 | 34783 ft | 465 kts | 289° |
| 2026-05-04 01:29 | 19.77701 | 70.65269 | 34785 ft | 464 kts | 289° |
| 2026-05-04 01:29 | 19.79716 | 70.58758 | 34779 ft | 464 kts | 289° |
| 2026-05-04 01:30 | 19.81724 | 70.52259 | 34783 ft | 464 kts | 289° |
| 2026-05-04 01:30 | 19.83737 | 70.45736 | 34791 ft | 465 kts | 289° |
| 2026-05-04 01:31 | 19.85584 | 70.39204 | 34806 ft | 464 kts | 281° |
| 2026-05-04 01:31 | 19.85737 | 70.32292 | 34812 ft | 469 kts | 263° |
| 2026-05-04 01:32 | 19.83978 | 70.25592 | 34801 ft | 472 kts | 255° |
| 2026-05-04 01:32 | 19.81904 | 70.19015 | 34806 ft | 472 kts | 254° |
| 2026-05-04 01:33 | 19.79792 | 70.12358 | 34799 ft | 472 kts | 254° |
| 2026-05-04 01:33 | 19.77703 | 70.05754 | 34797 ft | 472 kts | 254° |
| 2026-05-04 01:34 | 19.75605 | 69.99154 | 34797 ft | 472 kts | 254° |
| 2026-05-04 01:34 | 19.73506 | 69.92544 | 34797 ft | 472 kts | 254° |
| 2026-05-04 01:35 | 19.71404 | 69.85944 | 34795 ft | 472 kts | 254° |
| 2026-05-04 01:35 | 19.69300 | 69.79342 | 34794 ft | 472 kts | 254° |
| 2026-05-04 01:36 | 19.67192 | 69.72739 | 34799 ft | 473 kts | 254° |
| 2026-05-04 01:36 | 19.65081 | 69.66136 | 34791 ft | 472 kts | 254° |
| 2026-05-04 01:37 | 19.62969 | 69.59536 | 34792 ft | 473 kts | 254° |
| 2026-05-04 01:37 | 19.60855 | 69.52941 | 34792 ft | 473 kts | 254° |
| 2026-05-04 01:38 | 19.58736 | 69.46343 | 34793 ft | 473 kts | 254° |
| 2026-05-04 01:38 | 19.56929 | 69.39666 | 34811 ft | 468 kts | 265° |
| 2026-05-04 01:39 | 19.57046 | 69.32829 | 34813 ft | 464 kts | 283° |
| 2026-05-04 01:39 | 19.59208 | 69.26442 | 34817 ft | 461 kts | 297° |
| 2026-05-04 01:40 | 19.62110 | 69.20362 | 34803 ft | 461 kts | 297° |
| 2026-05-04 01:40 | 19.65029 | 69.14315 | 34802 ft | 461 kts | 297° |
| 2026-05-04 01:41 | 19.67935 | 69.08245 | 34805 ft | 462 kts | 297° |
| 2026-05-04 01:41 | 19.70358 | 69.03199 | 34801 ft | 462 kts | 297° |
| 2026-05-04 01:42 | 19.73269 | 68.97118 | 34803 ft | 462 kts | 297° |
| 2026-05-04 01:42 | 19.76179 | 68.91038 | 34804 ft | 461 kts | 297° |
| 2026-05-04 01:43 | 19.79082 | 68.84962 | 34802 ft | 462 kts | 297° |
| 2026-05-04 01:43 | 19.81985 | 68.78884 | 34796 ft | 461 kts | 297° |
| 2026-05-04 01:44 | 19.84872 | 68.72829 | 34798 ft | 460 kts | 297° |
| 2026-05-04 01:44 | 19.87766 | 68.66755 | 34796 ft | 460 kts | 297° |
| 2026-05-04 01:45 | 19.90668 | 68.60656 | 34792 ft | 459 kts | 297° |
| 2026-05-04 01:45 | 19.94959 | 68.51628 | 34793 ft | 458 kts | 297° |
| 2026-05-04 01:46 | 19.97850 | 68.45536 | 34793 ft | 459 kts | 297° |
| 2026-05-04 01:46 | 20.00725 | 68.39472 | 34797 ft | 459 kts | 297° |
| 2026-05-04 01:47 | 20.03574 | 68.33458 | 34796 ft | 460 kts | 297° |
| 2026-05-04 01:47 | 20.06451 | 68.27374 | 34794 ft | 459 kts | 297° |
| 2026-05-04 01:48 | 20.09318 | 68.21307 | 34792 ft | 460 kts | 297° |
| 2026-05-04 01:48 | 20.12185 | 68.15233 | 34793 ft | 459 kts | 297° |
| 2026-05-04 01:49 | 20.15049 | 68.09160 | 34797 ft | 458 kts | 297° |
| 2026-05-04 01:49 | 20.17904 | 68.03098 | 34795 ft | 458 kts | 297° |
| 2026-05-04 01:50 | 20.20779 | 67.96989 | 34791 ft | 459 kts | 297° |
| 2026-05-04 01:50 | 20.23632 | 67.90917 | 34795 ft | 458 kts | 297° |
| 2026-05-04 01:51 | 20.26462 | 67.84889 | 34789 ft | 459 kts | 297° |
| 2026-05-04 01:51 | 20.29311 | 67.78813 | 34789 ft | 458 kts | 297° |
| 2026-05-04 01:52 | 20.32153 | 67.72746 | 34794 ft | 458 kts | 297° |
| 2026-05-04 01:52 | 20.34994 | 67.66675 | 34791 ft | 458 kts | 297° |
| 2026-05-04 01:53 | 20.37834 | 67.60599 | 34791 ft | 457 kts | 297° |
| 2026-05-04 01:53 | 20.40660 | 67.54545 | 34786 ft | 457 kts | 297° |
| 2026-05-04 01:54 | 20.43493 | 67.48471 | 34793 ft | 456 kts | 297° |
| 2026-05-04 01:54 | 20.46315 | 67.42413 | 34784 ft | 456 kts | 297° |
| 2026-05-04 01:55 | 20.49142 | 67.36337 | 34783 ft | 457 kts | 297° |
| 2026-05-04 01:55 | 20.51965 | 67.30265 | 34785 ft | 456 kts | 297° |
| 2026-05-04 01:56 | 20.54780 | 67.24202 | 34789 ft | 456 kts | 297° |
| 2026-05-04 01:56 | 20.57594 | 67.18133 | 34782 ft | 457 kts | 297° |
| 2026-05-04 01:57 | 20.60403 | 67.12070 | 34789 ft | 456 kts | 297° |
| 2026-05-04 01:57 | 20.63209 | 67.06005 | 34787 ft | 455 kts | 297° |
| 2026-05-04 01:58 | 20.66013 | 66.99939 | 34783 ft | 455 kts | 297° |
| 2026-05-04 01:58 | 20.68811 | 66.93877 | 34784 ft | 455 kts | 297° |
| 2026-05-04 01:59 | 20.71603 | 66.87823 | 34787 ft | 454 kts | 297° |
| 2026-05-04 01:59 | 20.74398 | 66.81757 | 34786 ft | 454 kts | 297° |
| 2026-05-04 02:00 | 20.77182 | 66.75705 | 34784 ft | 454 kts | 297° |
| 2026-05-04 02:00 | 20.79964 | 66.69653 | 34783 ft | 453 kts | 297° |
| 2026-05-04 02:01 | 20.82743 | 66.63600 | 34786 ft | 454 kts | 297° |
| 2026-05-04 02:01 | 20.85513 | 66.57559 | 34791 ft | 453 kts | 297° |
| 2026-05-04 02:02 | 20.88283 | 66.51512 | 34782 ft | 452 kts | 297° |
| 2026-05-04 02:02 | 20.91046 | 66.45472 | 34782 ft | 451 kts | 297° |
| 2026-05-04 02:03 | 20.93808 | 66.39429 | 34782 ft | 453 kts | 297° |
| 2026-05-04 02:03 | 20.96570 | 66.33377 | 34791 ft | 453 kts | 297° |
| 2026-05-04 02:04 | 20.99331 | 66.27323 | 34788 ft | 453 kts | 297° |
| 2026-05-04 02:04 | 21.02089 | 66.21268 | 34784 ft | 453 kts | 297° |
| 2026-05-04 02:05 | 21.04845 | 66.15208 | 34786 ft | 453 kts | 297° |
| 2026-05-04 02:05 | 21.07597 | 66.09153 | 34791 ft | 453 kts | 297° |
| 2026-05-04 02:06 | 21.10349 | 66.03088 | 34789 ft | 453 kts | 297° |
| 2026-05-04 02:06 | 21.13120 | 65.97031 | 34784 ft | 452 kts | 298° |
| 2026-05-04 02:07 | 21.15995 | 65.91035 | 34789 ft | 452 kts | 298° |
| 2026-05-04 02:07 | 21.18804 | 65.85023 | 34784 ft | 451 kts | 298° |
| 2026-05-04 02:08 | 21.21640 | 65.79018 | 34789 ft | 452 kts | 298° |
| 2026-05-04 02:08 | 21.24473 | 65.72982 | 34785 ft | 453 kts | 298° |
| 2026-05-04 02:09 | 21.27305 | 65.66953 | 34785 ft | 453 kts | 298° |
| 2026-05-04 02:09 | 21.30132 | 65.60922 | 34782 ft | 453 kts | 298° |
| 2026-05-04 02:10 | 21.32944 | 65.54919 | 34785 ft | 453 kts | 298° |
| 2026-05-04 02:10 | 21.35787 | 65.48843 | 34789 ft | 453 kts | 297° |
| 2026-05-04 02:11 | 21.38590 | 65.42844 | 34791 ft | 453 kts | 297° |
| 2026-05-04 02:11 | 21.41406 | 65.36812 | 34788 ft | 452 kts | 297° |
| 2026-05-04 02:12 | 21.44224 | 65.30767 | 34784 ft | 452 kts | 297° |
| 2026-05-04 02:12 | 21.47035 | 65.24732 | 34788 ft | 452 kts | 297° |
| 2026-05-04 02:13 | 21.49843 | 65.18695 | 34785 ft | 452 kts | 297° |
| 2026-05-04 02:13 | 21.52645 | 65.12664 | 34780 ft | 451 kts | 297° |
| 2026-05-04 02:14 | 21.55463 | 65.06592 | 34788 ft | 452 kts | 297° |
| 2026-05-04 02:14 | 21.58243 | 65.00595 | 34784 ft | 451 kts | 297° |
| 2026-05-04 02:15 | 21.61034 | 64.94567 | 34786 ft | 450 kts | 297° |
| 2026-05-04 02:15 | 21.63819 | 64.88544 | 34779 ft | 450 kts | 297° |
| 2026-05-04 02:16 | 21.66599 | 64.82526 | 34780 ft | 450 kts | 297° |
| 2026-05-04 02:16 | 21.69378 | 64.76503 | 34781 ft | 449 kts | 297° |
| 2026-05-04 02:17 | 21.72148 | 64.70491 | 34771 ft | 449 kts | 297° |
| 2026-05-04 02:17 | 21.74918 | 64.64475 | 34774 ft | 449 kts | 297° |
| 2026-05-04 02:18 | 21.77689 | 64.58447 | 34778 ft | 449 kts | 297° |
| 2026-05-04 02:18 | 21.80462 | 64.52410 | 34776 ft | 449 kts | 297° |
| 2026-05-04 02:19 | 21.83226 | 64.46383 | 34779 ft | 449 kts | 297° |
| 2026-05-04 02:19 | 21.85988 | 64.40354 | 34774 ft | 449 kts | 297° |
| 2026-05-04 02:20 | 21.88750 | 64.34319 | 34781 ft | 450 kts | 297° |
| 2026-05-04 02:20 | 21.91513 | 64.28274 | 34780 ft | 450 kts | 297° |
| 2026-05-04 02:21 | 21.94272 | 64.22230 | 34781 ft | 450 kts | 297° |
| 2026-05-04 02:21 | 21.97028 | 64.16186 | 34779 ft | 449 kts | 297° |
| 2026-05-04 02:22 | 21.99777 | 64.10151 | 34773 ft | 449 kts | 297° |
| 2026-05-04 02:22 | 22.02531 | 64.04097 | 34776 ft | 450 kts | 297° |
| 2026-05-04 02:23 | 22.04816 | 63.99069 | 34780 ft | 450 kts | 297° |
| 2026-05-04 02:23 | 22.07590 | 63.92957 | 34778 ft | 450 kts | 297° |
| 2026-05-04 02:24 | 22.10319 | 63.86939 | 34778 ft | 451 kts | 297° |
| 2026-05-04 02:24 | 22.13086 | 63.80826 | 34783 ft | 450 kts | 297° |
| 2026-05-04 02:25 | 22.15814 | 63.74796 | 34781 ft | 450 kts | 297° |
| 2026-05-04 02:25 | 22.18574 | 63.68685 | 34779 ft | 450 kts | 297° |
| 2026-05-04 02:26 | 22.21315 | 63.62610 | 34784 ft | 450 kts | 297° |
| 2026-05-04 02:26 | 22.24020 | 63.56607 | 34786 ft | 450 kts | 297° |
| 2026-05-04 02:27 | 22.26746 | 63.50549 | 34782 ft | 450 kts | 297° |
| 2026-05-04 02:27 | 22.29481 | 63.44466 | 34781 ft | 450 kts | 297° |
| 2026-05-04 02:28 | 22.32215 | 63.38377 | 34779 ft | 450 kts | 297° |
| 2026-05-04 02:28 | 22.34940 | 63.32301 | 34784 ft | 450 kts | 297° |